Observation data for Brownfield on 01/15/2019      Previous  Date  Next       Current Mesonet Observations  Soil Data  Daily Summary Page  Observations in Plain Language
KBWS 150600Z 20008KT 04/02 A3027 RMK A01 T00430022  RH  087%=      5-min Rain = 0
KBWS 150605Z 20008KT 04/02 A3027 RMK A01 T00430022  RH  087%=      5-min Rain = 0
KBWS 150610Z 20009KT 04/02 A3027 RMK A01 T00430021  RH  087%=      5-min Rain = 0
KBWS 150615Z 22008KT 04/02 A3027 RMK A01 T00430022  RH  087%=      5-min Rain = 0
KBWS 150620Z 22007KT 04/02 A3027 RMK A01 T00420022  RH  087%=      5-min Rain = 0
KBWS 150625Z 22007KT 04/02 A3027 RMK A01 T00410021  RH  088%=      5-min Rain = 0
KBWS 150630Z 22009KT 04/02 A3027 RMK A01 T00420021  RH  088%=      5-min Rain = 0
KBWS 150635Z 23008KT 04/02 A3027 RMK A01 T00410021  RH  088%=      5-min Rain = 0
KBWS 150640Z 22009KT 04/02 A3027 RMK A01 T00410021  RH  088%=      5-min Rain = 0
KBWS 150645Z 22007KT 04/02 A3026 RMK A01 T00400021  RH  088%=      5-min Rain = 0
KBWS 150650Z 22008KT 04/02 A3026 RMK A01 T00410021  RH  088%=      5-min Rain = 0
KBWS 150655Z 20010KT 04/02 A3026 RMK A01 T00400021  RH  088%=      5-min Rain = 0
KBWS 150700Z 21009KT 04/02 A3026 RMK A01 T00400021  RH  088%=      5-min Rain = 0
KBWS 150705Z 20009KT 04/02 A3026 RMK A01 T00400021  RH  088%=      5-min Rain = 0
KBWS 150710Z 20009KT 04/02 A3026 RMK A01 T00400020  RH  088%=      5-min Rain = 0
KBWS 150715Z 21010KT 04/02 A3026 RMK A01 T00400020  RH  088%=      5-min Rain = 0
KBWS 150720Z 21009KT 04/02 A3025 RMK A01 T00390021  RH  089%=      5-min Rain = 0
KBWS 150725Z 20007KT 04/02 A3025 RMK A01 T00390021  RH  089%=      5-min Rain = 0
KBWS 150730Z 21009KT 04/02 A3025 RMK A01 T00390021  RH  089%=      5-min Rain = 0
KBWS 150735Z 21008KT 04/02 A3025 RMK A01 T00390021  RH  089%=      5-min Rain = 0
KBWS 150740Z 22010KT 04/02 A3025 RMK A01 T00390021  RH  089%=      5-min Rain = 0
KBWS 150745Z 21010KT 04/02 A3025 RMK A01 T00380021  RH  089%=      5-min Rain = 0
KBWS 150750Z 21009KT 04/02 A3025 RMK A01 T00380020  RH  090%=      5-min Rain = 0
KBWS 150755Z 21009KT 04/02 A3025 RMK A01 T00370020  RH  090%=      5-min Rain = 0
KBWS 150800Z 21008KT 04/02 A3025 RMK A01 T00370020  RH  090%=      5-min Rain = 0
KBWS 150805Z 22007KT 04/02 A3024 RMK A01 T00370020  RH  090%=      5-min Rain = 0
KBWS 150810Z 22008KT 04/02 A3024 RMK A01 T00370020  RH  090%=      5-min Rain = 0
KBWS 150815Z 22009KT 04/02 A3025 RMK A01 T00370020  RH  090%=      5-min Rain = 0
KBWS 150820Z 21009KT 04/02 A3025 RMK A01 T00360020  RH  090%=      5-min Rain = 0
KBWS 150825Z 21008KT 04/02 A3024 RMK A01 T00360020  RH  090%=      5-min Rain = 0
KBWS 150830Z 21008KT 04/02 A3024 RMK A01 T00360020  RH  090%=      5-min Rain = 0
KBWS 150835Z 21009KT 04/02 A3024 RMK A01 T00360019  RH  090%=      5-min Rain = 0
KBWS 150840Z 21010KT 04/02 A3024 RMK A01 T00360019  RH  090%=      5-min Rain = 0
KBWS 150845Z 20008KT 04/02 A3024 RMK A01 T00360020  RH  090%=      5-min Rain = 0
KBWS 150850Z 20009KT 04/02 A3024 RMK A01 T00360020  RH  090%=      5-min Rain = 0
KBWS 150855Z 21007KT 04/02 A3024 RMK A01 T00360019  RH  090%=      5-min Rain = 0
KBWS 150900Z 21009KT 04/02 A3024 RMK A01 T00360019  RH  090%=      5-min Rain = 0
KBWS 150905Z 22008KT 04/02 A3024 RMK A01 T00350019  RH  090%=      5-min Rain = 0
KBWS 150910Z 23009KT 04/02 A3024 RMK A01 T00350019  RH  090%=      5-min Rain = 0
KBWS 150915Z 23009KT 04/02 A3024 RMK A01 T00350018  RH  090%=      5-min Rain = 0
KBWS 150920Z 23008KT 04/02 A3024 RMK A01 T00350019  RH  090%=      5-min Rain = 0
KBWS 150925Z 23008KT 04/02 A3024 RMK A01 T00350018  RH  090%=      5-min Rain = 0
KBWS 150930Z 23008KT 04/02 A3024 RMK A01 T00350018  RH  090%=      5-min Rain = 0
KBWS 150935Z 23008KT 04/02 A3024 RMK A01 T00350018  RH  090%=      5-min Rain = 0
KBWS 150940Z 23008KT 04/02 A3024 RMK A01 T00350018  RH  090%=      5-min Rain = 0
KBWS 150945Z 22009KT 03/02 A3023 RMK A01 T00340018  RH  090%=      5-min Rain = 0
KBWS 150950Z 21009KT 03/02 A3023 RMK A01 T00340018  RH  091%=      5-min Rain = 0
KBWS 150955Z 22007KT 03/02 A3023 RMK A01 T00340019  RH  091%=      5-min Rain = 0
KBWS 151000Z 22008KT 03/02 A3023 RMK A01 T00340019  RH  091%=      5-min Rain = 0
KBWS 151005Z 23007KT 03/02 A3023 RMK A01 T00340019  RH  091%=      5-min Rain = 0
KBWS 151010Z 24008KT 04/02 A3023 RMK A01 T00350019  RH  090%=      5-min Rain = 0
KBWS 151015Z 24009KT 03/02 A3023 RMK A01 T00340018  RH  090%=      5-min Rain = 0
KBWS 151020Z 23009KT 03/02 A3023 RMK A01 T00330018  RH  091%=      5-min Rain = 0
KBWS 151025Z 23007KT 03/02 A3023 RMK A01 T00330017  RH  091%=      5-min Rain = 0
KBWS 151030Z 23006KT 03/02 A3023 RMK A01 T00330017  RH  091%=      5-min Rain = 0
KBWS 151035Z 23006KT 03/02 A3023 RMK A01 T00330018  RH  091%=      5-min Rain = 0
KBWS 151040Z 23006KT 03/02 A3023 RMK A01 T00340018  RH  091%=      5-min Rain = 0
KBWS 151045Z 24007KT 03/02 A3023 RMK A01 T00340018  RH  091%=      5-min Rain = 0
KBWS 151050Z 24009KT 03/02 A3023 RMK A01 T00330017  RH  091%=      5-min Rain = 0
KBWS 151055Z 24009KT 03/02 A3023 RMK A01 T00320017  RH  091%=      5-min Rain = 0
KBWS 151100Z 23008KT 03/02 A3023 RMK A01 T00320017  RH  091%=      5-min Rain = 0
KBWS 151105Z 23009KT 03/02 A3023 RMK A01 T00320017  RH  091%=      5-min Rain = 0
KBWS 151110Z 24008KT 03/02 A3023 RMK A01 T00320017  RH  091%=      5-min Rain = 0
KBWS 151115Z 23006KT 03/02 A3023 RMK A01 T00330018  RH  091%=      5-min Rain = 0
KBWS 151120Z 24007KT 03/02 A3023 RMK A01 T00330018  RH  091%=      5-min Rain = 0
KBWS 151125Z 25009KT 03/02 A3023 RMK A01 T00320017  RH  091%=      5-min Rain = 0
KBWS 151130Z 25009KT 03/02 A3023 RMK A01 T00310016  RH  091%=      5-min Rain = 0
KBWS 151135Z 25009KT 03/02 A3023 RMK A01 T00310016  RH  091%=      5-min Rain = 0
KBWS 151140Z 25008KT 03/02 A3023 RMK A01 T00320017  RH  091%=      5-min Rain = 0
KBWS 151145Z 25008KT 03/02 A3023 RMK A01 T00310017  RH  091%=      5-min Rain = 0
KBWS 151150Z 25008KT 03/02 A3022 RMK A01 T00310017  RH  091%=      5-min Rain = 0
KBWS 151155Z 24010KT 03/02 A3023 RMK A01 T00310016  RH  091%=      5-min Rain = 0
KBWS 151200Z 23009KT 03/02 A3023 RMK A01 T00310016  RH  091%=      5-min Rain = 0
KBWS 151205Z 23009KT 03/02 A3023 RMK A01 T00310017  RH  092%=      5-min Rain = 0
KBWS 151210Z 24009KT 03/02 A3023 RMK A01 T00310017  RH  092%=      5-min Rain = 0
KBWS 151215Z 24009KT 03/02 A3023 RMK A01 T00300017  RH  092%=      5-min Rain = 0
KBWS 151220Z 24007KT 03/02 A3023 RMK A01 T00300016  RH  092%=      5-min Rain = 0
KBWS 151225Z 23007KT 03/02 A3023 RMK A01 T00300016  RH  092%=      5-min Rain = 0
KBWS 151230Z 24008KT 03/02 A3024 RMK A01 T00300016  RH  092%=      5-min Rain = 0
KBWS 151235Z 25008KT 03/02 A3024 RMK A01 T00300017  RH  092%=      5-min Rain = 0
KBWS 151240Z 25007KT 03/02 A3024 RMK A01 T00310017  RH  092%=      5-min Rain = 0
KBWS 151245Z 25010KT 03/02 A3024 RMK A01 T00310016  RH  091%=      5-min Rain = 0
KBWS 151250Z 25009KT 03/02 A3024 RMK A01 T00300015  RH  091%=      5-min Rain = 0
KBWS 151255Z 25007KT 03/02 A3024 RMK A01 T00300015  RH  091%=      5-min Rain = 0
KBWS 151300Z 24006KT 03/02 A3024 RMK A01 T00310016  RH  091%=      5-min Rain = 0
KBWS 151305Z 26007KT 03/02 A3024 RMK A01 T00310016  RH  091%=      5-min Rain = 0
KBWS 151310Z 24008KT 03/02 A3024 RMK A01 T00310016  RH  092%=      5-min Rain = 0
KBWS 151315Z 25008KT 03/02 A3025 RMK A01 T00310017  RH  091%=      5-min Rain = 0
KBWS 151320Z 25008KT 03/02 A3024 RMK A01 T00310016  RH  091%=      5-min Rain = 0
KBWS 151325Z 25007KT 03/02 A3025 RMK A01 T00310016  RH  091%=      5-min Rain = 0
KBWS 151330Z 25007KT 03/02 A3025 RMK A01 T00310016  RH  091%=      5-min Rain = 0
KBWS 151335Z 25006KT 03/02 A3025 RMK A01 T00310016  RH  091%=      5-min Rain = 0
KBWS 151340Z 26008KT 03/02 A3025 RMK A01 T00310015  RH  091%=      5-min Rain = 0
KBWS 151345Z 26007KT 03/02 A3025 RMK A01 T00300016  RH  091%=      5-min Rain = 0
KBWS 151350Z 27005KT 03/02 A3025 RMK A01 T00310017  RH  092%=      5-min Rain = 0
KBWS 151355Z 25006KT 03/02 A3025 RMK A01 T00310017  RH  091%=      5-min Rain = 0
KBWS 151400Z 25006KT 03/02 A3024 RMK A01 T00310016  RH  091%=      5-min Rain = 0
KBWS 151405Z 25006KT 03/02 A3024 RMK A01 T00310017  RH  091%=      5-min Rain = 0
KBWS 151410Z 26007KT 03/02 A3024 RMK A01 T00310016  RH  091%=      5-min Rain = 0
KBWS 151415Z 25006KT 03/02 A3025 RMK A01 T00310016  RH  091%=      5-min Rain = 0
KBWS 151420Z 26007KT 03/02 A3025 RMK A01 T00310017  RH  091%=      5-min Rain = 0
KBWS 151425Z 26007KT 03/02 A3025 RMK A01 T00310017  RH  091%=      5-min Rain = 0
KBWS 151430Z 26007KT 03/02 A3025 RMK A01 T00320017  RH  091%=      5-min Rain = 0
KBWS 151435Z 24006KT 03/02 A3024 RMK A01 T00320018  RH  091%=      5-min Rain = 0
KBWS 151440Z 24008KT 03/02 A3024 RMK A01 T00320017  RH  091%=      5-min Rain = 0
KBWS 151445Z 26009KT 03/02 A3024 RMK A01 T00320016  RH  090%=      5-min Rain = 0
KBWS 151450Z 25008KT 03/02 A3024 RMK A01 T00310015  RH  090%=      5-min Rain = 0
KBWS 151455Z 25008KT 03/02 A3024 RMK A01 T00310015  RH  090%=      5-min Rain = 0
KBWS 151500Z 25008KT 03/02 A3024 RMK A01 T00310015  RH  091%=      5-min Rain = 0
KBWS 151505Z 25009KT 03/02 A3024 RMK A01 T00310016  RH  091%=      5-min Rain = 0
KBWS 151510Z 23009KT 03/02 A3024 RMK A01 T00310015  RH  091%=      5-min Rain = 0
KBWS 151515Z 23009KT 03/02 A3023 RMK A01 T00310016  RH  091%=      5-min Rain = 0
KBWS 151520Z 25009KT 03/02 A3023 RMK A01 T00310016  RH  091%=      5-min Rain = 0
KBWS 151525Z 25008KT 03/02 A3023 RMK A01 T00310016  RH  091%=      5-min Rain = 0
KBWS 151530Z 24007KT 03/02 A3023 RMK A01 T00310017  RH  092%=      5-min Rain = 0
KBWS 151535Z 23009KT 03/02 A3024 RMK A01 T00320017  RH  091%=      5-min Rain = 0
KBWS 151540Z 25007KT 03/02 A3024 RMK A01 T00330018  RH  091%=      5-min Rain = 0
KBWS 151545Z 24009KT 03/02 A3024 RMK A01 T00330017  RH  090%=      5-min Rain = 0
KBWS 151550Z 24008KT 03/02 A3025 RMK A01 T00330018  RH  091%=      5-min Rain = 0
KBWS 151555Z 23009KT 03/02 A3025 RMK A01 T00340017  RH  090%=      5-min Rain = 0
KBWS 151600Z 25009KT 04/02 A3025 RMK A01 T00350017  RH  089%=      5-min Rain = 0
KBWS 151605Z 23009KT 04/02 A3025 RMK A01 T00350017  RH  089%=      5-min Rain = 0
KBWS 151610Z 23010KT 04/02 A3025 RMK A01 T00350017  RH  089%=      5-min Rain = 0
KBWS 151615Z 24010KT 04/02 A3025 RMK A01 T00360017  RH  089%=      5-min Rain = 0
KBWS 151620Z 25009KT 04/02 A3025 RMK A01 T00370018  RH  089%=      5-min Rain = 0
KBWS 151625Z 25008KT 04/02 A3026 RMK A01 T00390019  RH  088%=      5-min Rain = 0
KBWS 151630Z 25009KT 04/02 A3025 RMK A01 T00390018  RH  087%=      5-min Rain = 0
KBWS 151635Z 25009KT 04/02 A3025 RMK A01 T00390019  RH  088%=      5-min Rain = 0
KBWS 151640Z 26009KT 04/02 A3025 RMK A01 T00410018  RH  086%=      5-min Rain = 0
KBWS 151645Z 25009KT 04/02 A3025 RMK A01 T00420019  RH  086%=      5-min Rain = 0
KBWS 151650Z 25007KT 05/02 A3025 RMK A01 T00450020  RH  085%=      5-min Rain = 0
KBWS 151655Z 25009KT 05/02 A3025 RMK A01 T00480021  RH  083%=      5-min Rain = 0
KBWS 151700Z 24006KT 05/02 A3025 RMK A01 T00450019  RH  084%=      5-min Rain = 0
KBWS 151705Z 24007KT 05/02 A3025 RMK A01 T00470020  RH  084%=      5-min Rain = 0
KBWS 151710Z 24008KT 05/02 A3025 RMK A01 T00470020  RH  084%=      5-min Rain = 0
KBWS 151715Z 24008KT 05/02 A3025 RMK A01 T00480021  RH  083%=      5-min Rain = 0
KBWS 151720Z 23008KT 05/02 A3025 RMK A01 T00490021  RH  083%=      5-min Rain = 0
KBWS 151725Z 24007KT 05/02 A3025 RMK A01 T00530022  RH  081%=      5-min Rain = 0
KBWS 151730Z 24006KT 05/02 A3025 RMK A01 T00540022  RH  081%=      5-min Rain = 0
KBWS 151735Z 25008KT 06/03 A3024 RMK A01 T00590025  RH  079%=      5-min Rain = 0
KBWS 151740Z 24007KT 06/03 A3024 RMK A01 T00610025  RH  079%=      5-min Rain = 0
KBWS 151745Z 21008KT 07/03 A3023 RMK A01 T00660026  RH  077%=      5-min Rain = 0
KBWS 151750Z 23007KT 07/03 A3023 RMK A01 T00670026  RH  076%=      5-min Rain = 0
KBWS 151755Z 24007KT 07/02 A3023 RMK A01 T00670024  RH  075%=      5-min Rain = 0
KBWS 151800Z 23007KT 07/03 A3022 RMK A01 T00700026  RH  075%=      5-min Rain = 0
KBWS 151805Z 21008KT 07/03 A3022 RMK A01 T00710025  RH  074%=      5-min Rain = 0
KBWS 151810Z 22008KT 08/03 A3021 RMK A01 T00750028  RH  073%=      5-min Rain = 0
KBWS 151815Z 21009KT 08/03 A3021 RMK A01 T00780029  RH  072%=      5-min Rain = 0
KBWS 151820Z 21010KT 08/03 A3021 RMK A01 T00780029  RH  072%=      5-min Rain = 0
KBWS 151825Z 21009KT 08/03 A3021 RMK A01 T00820030  RH  071%=      5-min Rain = 0
KBWS 151830Z 21010KT 08/03 A302 RMK A01 T00840031  RH  070%=      5-min Rain = 0
KBWS 151835Z 21011KT 08/03 A302 RMK A01 T00830030  RH  070%=      5-min Rain = 0
KBWS 151840Z 21011KT 09/03 A3019 RMK A01 T00860031  RH  069%=      5-min Rain = 0
KBWS 151845Z 21010KT 09/03 A3019 RMK A01 T00880033  RH  069%=      5-min Rain = 0
KBWS 151850Z 22009KT 09/03 A3019 RMK A01 T00890032  RH  068%=      5-min Rain = 0
KBWS 151855Z 22010G15KT 09/03 A3019 RMK A01 T00920034  RH  068%=      5-min Rain = 0
KBWS 151900Z 21010KT 10/04 A3018 RMK A01 T00960035  RH  067%=      5-min Rain = 0
KBWS 151905Z 22010G15KT 10/03 A3018 RMK A01 T00960034  RH  066%=      5-min Rain = 0
KBWS 151910Z 21011KT 10/03 A3017 RMK A01 T00970034  RH  066%=      5-min Rain = 0
KBWS 151915Z 21011KT 10/04 A3017 RMK A01 T00970035  RH  066%=      5-min Rain = 0
KBWS 151920Z 22011KT 10/04 A3017 RMK A01 T01000036  RH  065%=      5-min Rain = 0
KBWS 151925Z 22010KT 10/04 A3016 RMK A01 T01030036  RH  064%=      5-min Rain = 0
KBWS 151930Z 23011KT 10/04 A3016 RMK A01 T01030036  RH  064%=      5-min Rain = 0
KBWS 151935Z 23009KT 11/04 A3016 RMK A01 T01070037  RH  063%=      5-min Rain = 0
KBWS 151940Z 23010G15KT 11/04 A3015 RMK A01 T01070035  RH  062%=      5-min Rain = 0
KBWS 151945Z 23010KT 11/04 A3015 RMK A01 T01100037  RH  061%=      5-min Rain = 0
KBWS 151950Z 22010KT 11/04 A3014 RMK A01 T01110036  RH  061%=      5-min Rain = 0
KBWS 151955Z 23009KT 11/04 A3014 RMK A01 T01130036  RH  060%=      5-min Rain = 0
KBWS 152000Z 22010KT 12/04 A3014 RMK A01 T01150037  RH  059%=      5-min Rain = 0
KBWS 152005Z 24010KT 12/04 A3014 RMK A01 T01170037  RH  059%=      5-min Rain = 0
KBWS 152010Z 23010KT 12/04 A3014 RMK A01 T01190036  RH  058%=      5-min Rain = 0
KBWS 152015Z 23010KT 12/04 A3014 RMK A01 T01180036  RH  058%=      5-min Rain = 0
KBWS 152020Z 23010KT 12/04 A3014 RMK A01 T01200036  RH  057%=      5-min Rain = 0
KBWS 152025Z 22009KT 12/04 A3013 RMK A01 T01200037  RH  057%=      5-min Rain = 0
KBWS 152030Z 23009KT 12/04 A3013 RMK A01 T01210036  RH  057%=      5-min Rain = 0
KBWS 152035Z 22010KT 12/04 A3013 RMK A01 T01240038  RH  056%=      5-min Rain = 0
KBWS 152040Z 22009KT 12/04 A3013 RMK A01 T01240037  RH  056%=      5-min Rain = 0
KBWS 152045Z 23009G14KT 13/04 A3013 RMK A01 T01260038  RH  056%=      5-min Rain = 0
KBWS 152050Z 22010KT 13/04 A3013 RMK A01 T01260037  RH  055%=      5-min Rain = 0
KBWS 152055Z 21009G15KT 13/04 A3013 RMK A01 T01280038  RH  055%=      5-min Rain = 0
KBWS 152100Z 21009KT 13/04 A3013 RMK A01 T01280038  RH  055%=      5-min Rain = 0
KBWS 152105Z 21011KT 13/04 A3013 RMK A01 T01290037  RH  054%=      5-min Rain = 0
KBWS 152110Z 22011KT 13/04 A3013 RMK A01 T01300037  RH  054%=      5-min Rain = 0
KBWS 152115Z 22010KT 13/04 A3013 RMK A01 T01300035  RH  053%=      5-min Rain = 0
KBWS 152120Z 22010KT 13/04 A3013 RMK A01 T01300035  RH  053%=      5-min Rain = 0
KBWS 152125Z 22009G15KT 13/04 A3013 RMK A01 T01320036  RH  053%=      5-min Rain = 0
KBWS 152130Z 22010KT 13/04 A3012 RMK A01 T01330035  RH  052%=      5-min Rain = 0
KBWS 152135Z 22011KT 14/04 A3012 RMK A01 T01350036  RH  052%=      5-min Rain = 0
KBWS 152140Z 22010KT 14/04 A3012 RMK A01 T01360035  RH  051%=      5-min Rain = 0
KBWS 152145Z 22009KT 14/04 A3012 RMK A01 T01350036  RH  052%=      5-min Rain = 0
KBWS 152150Z 21010G15KT 14/04 A3012 RMK A01 T01380037  RH  051%=      5-min Rain = 0
KBWS 152155Z 21010KT 14/04 A3012 RMK A01 T01370035  RH  051%=      5-min Rain = 0
KBWS 152200Z 21011G16KT 14/04 A3012 RMK A01 T01380036  RH  051%=      5-min Rain = 0
KBWS 152205Z 21009KT 14/04 A3012 RMK A01 T01380035  RH  050%=      5-min Rain = 0
KBWS 152210Z 21011KT 14/03 A3012 RMK A01 T01380034  RH  050%=      5-min Rain = 0
KBWS 152215Z 21011KT 14/04 A3012 RMK A01 T01380035  RH  050%=      5-min Rain = 0
KBWS 152220Z 22011KT 14/03 A3012 RMK A01 T01380034  RH  050%=      5-min Rain = 0
KBWS 152225Z 21010KT 14/04 A3012 RMK A01 T01390036  RH  050%=      5-min Rain = 0
KBWS 152230Z 21010KT 14/04 A3012 RMK A01 T01400036  RH  050%=      5-min Rain = 0
KBWS 152235Z 21010KT 14/04 A3012 RMK A01 T01400036  RH  050%=      5-min Rain = 0
KBWS 152240Z 21010KT 14/04 A3012 RMK A01 T01380035  RH  050%=      5-min Rain = 0
KBWS 152245Z 21010KT 14/04 A3012 RMK A01 T01380037  RH  051%=      5-min Rain = 0
KBWS 152250Z 21011KT 14/04 A3012 RMK A01 T01380035  RH  051%=      5-min Rain = 0
KBWS 152255Z 21009KT 14/04 A3012 RMK A01 T01370037  RH  051%=      5-min Rain = 0
KBWS 152300Z 20009KT 14/04 A3011 RMK A01 T01370037  RH  052%=      5-min Rain = 0
KBWS 152305Z 21010KT 14/04 A3011 RMK A01 T01360036  RH  051%=      5-min Rain = 0
KBWS 152310Z 21010KT 14/04 A3011 RMK A01 T01350037  RH  052%=      5-min Rain = 0
KBWS 152315Z 21010KT 13/04 A3011 RMK A01 T01330036  RH  052%=      5-min Rain = 0
KBWS 152320Z 21011KT 13/04 A3011 RMK A01 T01320035  RH  052%=      5-min Rain = 0
KBWS 152325Z 21011KT 13/04 A3011 RMK A01 T01310035  RH  053%=      5-min Rain = 0
KBWS 152330Z 21011KT 13/03 A3011 RMK A01 T01290034  RH  053%=      5-min Rain = 0
KBWS 152335Z 21010KT 13/03 A3011 RMK A01 T01270034  RH  054%=      5-min Rain = 0
KBWS 152340Z 21009KT 13/03 A3011 RMK A01 T01260034  RH  054%=      5-min Rain = 0
KBWS 152345Z 21009KT 12/03 A3011 RMK A01 T01230034  RH  055%=      5-min Rain = 0
KBWS 152350Z 21009KT 12/03 A3011 RMK A01 T01200033  RH  056%=      5-min Rain = 0
KBWS 152355Z 21009KT 12/03 A3011 RMK A01 T01180032  RH  057%=      5-min Rain = 0
KBWS 160000Z 21009KT 11/03 A3012 RMK A01 T01140032  RH  058%=      5-min Rain = 0
KBWS 160005Z 21008KT 11/03 A3012 RMK A01 T01090031  RH  059%=      5-min Rain = 0
KBWS 160010Z 21007KT 11/03 A3012 RMK A01 T01060031  RH  061%=      5-min Rain = 0
KBWS 160015Z 21007KT 10/03 A3012 RMK A01 T01010030  RH  062%=      5-min Rain = 0
KBWS 160020Z 21007KT 10/03 A3012 RMK A01 T00970029  RH  063%=      5-min Rain = 0
KBWS 160025Z 20007KT 09/03 A3012 RMK A01 T00940026  RH  063%=      5-min Rain = 0
KBWS 160030Z 20008KT 09/02 A3012 RMK A01 T00870024  RH  065%=      5-min Rain = 0
KBWS 160035Z 20008KT 08/02 A3012 RMK A01 T00840024  RH  067%=      5-min Rain = 0
KBWS 160040Z 19007KT 08/03 A3012 RMK A01 T00840025  RH  067%=      5-min Rain = 0
KBWS 160045Z 20008KT 08/03 A3013 RMK A01 T00840025  RH  067%=      5-min Rain = 0
KBWS 160050Z 20008KT 08/02 A3013 RMK A01 T00800023  RH  068%=      5-min Rain = 0
KBWS 160055Z 20008KT 08/02 A3013 RMK A01 T00800024  RH  069%=      5-min Rain = 0
KBWS 160100Z 20008KT 08/03 A3013 RMK A01 T00800025  RH  069%=      5-min Rain = 0
KBWS 160105Z 20008KT 08/03 A3013 RMK A01 T00820026  RH  069%=      5-min Rain = 0
KBWS 160110Z 20008KT 08/03 A3013 RMK A01 T00810026  RH  069%=      5-min Rain = 0
KBWS 160115Z 21009KT 08/03 A3013 RMK A01 T00800026  RH  070%=      5-min Rain = 0
KBWS 160120Z 21009KT 08/03 A3013 RMK A01 T00790025  RH  069%=      5-min Rain = 0
KBWS 160125Z 21008KT 08/02 A3013 RMK A01 T00760023  RH  070%=      5-min Rain = 0
KBWS 160130Z 21009KT 07/02 A3013 RMK A01 T00740023  RH  071%=      5-min Rain = 0
KBWS 160135Z 21009KT 07/02 A3013 RMK A01 T00740023  RH  071%=      5-min Rain = 0
KBWS 160140Z 21009KT 07/02 A3013 RMK A01 T00720023  RH  072%=      5-min Rain = 0
KBWS 160145Z 21009KT 07/02 A3013 RMK A01 T00700022  RH  072%=      5-min Rain = 0
KBWS 160150Z 21009KT 07/02 A3013 RMK A01 T00690022  RH  073%=      5-min Rain = 0
KBWS 160155Z 21009KT 07/02 A3014 RMK A01 T00680023  RH  074%=      5-min Rain = 0
KBWS 160200Z 21009KT 07/02 A3014 RMK A01 T00670022  RH  074%=      5-min Rain = 0
KBWS 160205Z 21008KT 07/02 A3014 RMK A01 T00650023  RH  075%=      5-min Rain = 0
KBWS 160210Z 21008KT 07/02 A3014 RMK A01 T00650023  RH  075%=      5-min Rain = 0
KBWS 160215Z 22008KT 06/02 A3014 RMK A01 T00640022  RH  075%=      5-min Rain = 0
KBWS 160220Z 22009KT 07/02 A3014 RMK A01 T00650022  RH  075%=      5-min Rain = 0
KBWS 160225Z 22009KT 07/02 A3014 RMK A01 T00670022  RH  074%=      5-min Rain = 0
KBWS 160230Z 22008KT 06/02 A3014 RMK A01 T00630021  RH  075%=      5-min Rain = 0
KBWS 160235Z 22008KT 06/02 A3014 RMK A01 T00610020  RH  076%=      5-min Rain = 0
KBWS 160240Z 22007KT 06/02 A3014 RMK A01 T00600020  RH  076%=      5-min Rain = 0
KBWS 160245Z 23008KT 06/02 A3014 RMK A01 T00600020  RH  076%=      5-min Rain = 0
KBWS 160250Z 23008KT 06/02 A3014 RMK A01 T00620021  RH  076%=      5-min Rain = 0
KBWS 160255Z 23008KT 06/02 A3014 RMK A01 T00620020  RH  076%=      5-min Rain = 0
KBWS 160300Z 22009KT 06/02 A3013 RMK A01 T00600020  RH  076%=      5-min Rain = 0
KBWS 160305Z 22009KT 06/02 A3013 RMK A01 T00570019  RH  077%=      5-min Rain = 0
KBWS 160310Z 22010KT 06/02 A3013 RMK A01 T00560019  RH  078%=      5-min Rain = 0
KBWS 160315Z 22010KT 06/02 A3013 RMK A01 T00590022  RH  078%=      5-min Rain = 0
KBWS 160320Z 22010KT 06/02 A3013 RMK A01 T00600023  RH  078%=      5-min Rain = 0
KBWS 160325Z 22010KT 06/03 A3013 RMK A01 T00630025  RH  078%=      5-min Rain = 0
KBWS 160330Z 22010KT 07/03 A3013 RMK A01 T00650026  RH  077%=      5-min Rain = 0
KBWS 160335Z 23009KT 06/03 A3013 RMK A01 T00630025  RH  078%=      5-min Rain = 0
KBWS 160340Z 23008KT 06/03 A3014 RMK A01 T00620025  RH  078%=      5-min Rain = 0
KBWS 160345Z 23009KT 06/03 A3014 RMK A01 T00610025  RH  079%=      5-min Rain = 0
KBWS 160350Z 23009KT 06/03 A3014 RMK A01 T00610025  RH  079%=      5-min Rain = 0
KBWS 160355Z 23008KT 06/02 A3014 RMK A01 T00580023  RH  079%=      5-min Rain = 0
KBWS 160400Z 22008KT 06/02 A3013 RMK A01 T00560023  RH  080%=      5-min Rain = 0
KBWS 160405Z 22008KT 05/02 A3013 RMK A01 T00530022  RH  082%=      5-min Rain = 0
KBWS 160410Z 23007KT 05/02 A3013 RMK A01 T00520022  RH  082%=      5-min Rain = 0
KBWS 160415Z 23007KT 05/02 A3013 RMK A01 T00520024  RH  083%=      5-min Rain = 0
KBWS 160420Z 23008KT 05/02 A3013 RMK A01 T00530024  RH  083%=      5-min Rain = 0
KBWS 160425Z 23008KT 05/03 A3013 RMK A01 T00540025  RH  083%=      5-min Rain = 0
KBWS 160430Z 22009KT 05/03 A3013 RMK A01 T00540026  RH  083%=      5-min Rain = 0
KBWS 160435Z 23009KT 06/03 A3013 RMK A01 T00560028  RH  083%=      5-min Rain = 0
KBWS 160440Z 23009KT 06/03 A3013 RMK A01 T00590030  RH  082%=      5-min Rain = 0
KBWS 160445Z 23009KT 06/03 A3013 RMK A01 T00610031  RH  082%=      5-min Rain = 0
KBWS 160450Z 22010KT 06/03 A3013 RMK A01 T00620031  RH  082%=      5-min Rain = 0
KBWS 160455Z 22010KT 06/03 A3013 RMK A01 T00610030  RH  082%=      5-min Rain = 0
KBWS 160500Z 22010KT 06/03 A3014 RMK A01 T00590030  RH  083%=      5-min Rain = 0
KBWS 160505Z 22009KT 06/03 A3014 RMK A01 T00590030  RH  083%=      5-min Rain = 0
KBWS 160510Z 22009KT 06/03 A3014 RMK A01 T00580030  RH  083%=      5-min Rain = 0
KBWS 160515Z 23009KT 06/03 A3014 RMK A01 T00570030  RH  084%=      5-min Rain = 0
KBWS 160520Z 23010KT 06/03 A3014 RMK A01 T00590031  RH  084%=      5-min Rain = 0
KBWS 160525Z 23009KT 06/03 A3014 RMK A01 T00580030  RH  083%=      5-min Rain = 0
KBWS 160530Z 22010KT 06/03 A3014 RMK A01 T00570030  RH  084%=      5-min Rain = 0
KBWS 160535Z 22010KT 06/03 A3014 RMK A01 T00550030  RH  085%=      5-min Rain = 0
KBWS 160540Z 21009KT 05/03 A3014 RMK A01 T00520029  RH  086%=      5-min Rain = 0
KBWS 160545Z 22010KT 05/03 A3014 RMK A01 T00520029  RH  086%=      5-min Rain = 0
KBWS 160550Z 22008KT 05/03 A3014 RMK A01 T00500027  RH  086%=      5-min Rain = 0
KBWS 160555Z 22008KT 05/03 A3014 RMK A01 T00490026  RH  087%=      5-min Rain = 0

Page generated in 0.0082 seconds.